createdAt,value
2023-01-01T00:00:58.592Z,21.90
2023-01-01T00:04:02.395Z,18.45
2023-01-01T00:07:05.444Z,15.57
2023-01-01T00:10:29.249Z,18.62
2023-01-01T00:13:32.732Z,20.52
2023-01-01T00:16:36.286Z,15.70
2023-01-01T00:19:39.728Z,14.13
2023-01-01T00:22:54.446Z,13.93
2023-01-01T00:25:58.840Z,10.35
2023-01-01T00:29:02.842Z,11.23
2023-01-01T00:32:10.159Z,13.57
2023-01-01T00:35:15.048Z,14.90
2023-01-01T00:38:18.025Z,14.60
2023-01-01T00:41:21.467Z,13.15
2023-01-01T00:44:24.512Z,12.30
2023-01-01T00:47:27.959Z,11.00
2023-01-01T00:50:30.979Z,8.63
2023-01-01T00:53:34.660Z,11.45
2023-01-01T00:56:38.074Z,10.50
2023-01-01T00:59:41.439Z,10.20
2023-01-01T01:02:44.849Z,10.93
2023-01-01T01:05:48.537Z,21.17
2023-01-01T01:08:51.635Z,14.68
2023-01-01T01:12:17.557Z,15.23
2023-01-01T01:15:17.998Z,20.40
2023-01-01T01:18:21.397Z,19.25
2023-01-01T01:21:24.859Z,19.95
2023-01-01T01:24:28.636Z,23.15
2023-01-01T01:27:32.077Z,23.87
2023-01-01T01:30:39.518Z,19.02
2023-01-01T01:33:46.775Z,17.05
2023-01-01T01:36:53.263Z,14.60
2023-01-01T01:39:56.737Z,15.68
2023-01-01T01:43:00.048Z,15.40
2023-01-01T01:46:10.639Z,12.30
2023-01-01T01:49:21.343Z,19.55
2023-01-01T01:52:25.169Z,19.77
2023-01-01T01:55:33.446Z,23.73
2023-01-01T01:58:36.647Z,28.00
2023-01-01T02:01:42.335Z,26.15
2023-01-01T02:04:45.973Z,26.05
2023-01-01T02:07:49.512Z,26.17
2023-01-01T02:10:53.188Z,20.35
2023-01-01T02:13:58.127Z,20.62
2023-01-01T02:20:19.803Z,20.35
2023-01-01T02:23:43.005Z,20.10
2023-01-01T02:27:00.062Z,21.12
2023-01-01T02:30:08.488Z,19.83
2023-01-01T02:33:16.474Z,22.60
2023-01-01T02:36:20.435Z,24.40
2023-01-01T02:39:26.821Z,23.45
2023-01-01T02:42:30.480Z,22.05
2023-01-01T02:45:33.739Z,20.05
2023-01-01T02:48:43.526Z,22.75
2023-01-01T02:52:03.621Z,23.33
2023-01-01T02:55:30.858Z,19.90
2023-01-01T02:59:01.626Z,18.30
2023-01-01T03:02:09.362Z,20.85
2023-01-01T03:05:17.967Z,20.73
2023-01-01T03:08:26.197Z,23.48
2023-01-01T03:11:44.362Z,18.80
2023-01-01T03:15:01.539Z,16.65
2023-01-01T03:18:27.179Z,17.90
2023-01-01T03:21:31.887Z,16.52
2023-01-01T03:24:47.728Z,24.45
2023-01-01T03:27:54.847Z,16.20
2023-01-01T03:30:58.104Z,16.98
2023-01-01T03:34:05.905Z,15.63
2023-01-01T03:37:13.195Z,15.75
2023-01-01T03:40:19.064Z,16.30
2023-01-01T03:43:32.103Z,17.08
2023-01-01T03:46:36.623Z,17.58
2023-01-01T03:49:39.699Z,16.67
2023-01-01T03:53:02.356Z,16.33
2023-01-01T03:56:07.677Z,22.33
2023-01-01T03:59:13.916Z,23.40
2023-01-01T04:02:20.425Z,21.77
2023-01-01T04:05:25.105Z,17.00
2023-01-01T04:08:28.119Z,23.02
2023-01-01T04:11:51.794Z,19.52
2023-01-01T04:14:54.714Z,23.25
2023-01-01T04:17:58.146Z,22.80
2023-01-01T04:21:01.094Z,23.05
2023-01-01T04:24:04.458Z,20.30
2023-01-01T04:27:08.739Z,19.92
2023-01-01T04:30:13.705Z,12.93
2023-01-01T04:33:16.645Z,14.27
2023-01-01T04:36:20.146Z,16.85
2023-01-01T04:39:23.374Z,10.75
2023-01-01T04:42:28.458Z,16.00
2023-01-01T04:45:31.631Z,14.75
2023-01-01T04:48:36.455Z,16.03
2023-01-01T04:51:39.417Z,14.05
2023-01-01T04:54:42.655Z,11.77
2023-01-01T04:57:45.682Z,10.68
2023-01-01T05:00:52.236Z,16.35
2023-01-01T05:03:55.639Z,11.73
2023-01-01T05:06:59.237Z,10.63
2023-01-01T05:10:02.568Z,8.57
2023-01-01T05:13:12.052Z,10.90
2023-01-01T05:16:17.529Z,9.48
2023-01-01T05:19:20.968Z,10.70
2023-01-01T05:22:24.034Z,14.68
2023-01-01T05:25:27.418Z,16.42
2023-01-01T05:28:31.434Z,16.87
2023-01-01T05:31:36.276Z,17.58
2023-01-01T05:37:41.653Z,16.77
2023-01-01T05:40:46.501Z,16.87
2023-01-01T05:43:52.008Z,15.75
2023-01-01T05:46:56.308Z,17.30
2023-01-01T05:49:59.578Z,17.95
2023-01-01T05:53:02.924Z,19.83
2023-01-01T05:56:07.406Z,21.67
2023-01-01T05:59:11.319Z,12.75
2023-01-01T06:02:14.594Z,12.40
2023-01-01T06:05:18.147Z,14.68
2023-01-01T06:08:22.807Z,15.40
2023-01-01T06:11:26.849Z,14.87
2023-01-01T06:14:29.825Z,12.75
2023-01-01T06:17:34.097Z,8.63
2023-01-01T06:20:37.224Z,10.85
2023-01-01T06:23:40.951Z,12.25
2023-01-01T06:26:43.924Z,8.85
2023-01-01T06:29:47.183Z,10.75
2023-01-01T06:32:50.379Z,11.73
2023-01-01T06:35:54.994Z,11.35
2023-01-01T06:38:58.929Z,9.55
2023-01-01T06:42:02.514Z,11.83
2023-01-01T06:45:05.856Z,14.82
2023-01-01T06:48:09.085Z,14.23
2023-01-01T06:51:14.596Z,19.92
2023-01-01T06:54:17.968Z,14.75
2023-01-01T06:57:20.960Z,17.73
2023-01-01T07:00:24.201Z,16.62
2023-01-01T07:03:27.347Z,18.85
2023-01-01T07:06:32.029Z,14.70
2023-01-01T07:09:34.952Z,15.60
2023-01-01T07:12:38.100Z,14.63
2023-01-01T07:15:41.634Z,15.15
2023-01-01T07:18:45.745Z,16.90
2023-01-01T07:21:55.442Z,15.68
2023-01-01T07:24:58.809Z,14.77
2023-01-01T07:28:01.907Z,10.90
2023-01-01T07:31:05.909Z,13.82
2023-01-01T07:34:13.826Z,10.90
2023-01-01T07:37:17.139Z,13.77
2023-01-01T07:40:20.327Z,13.05
2023-01-01T07:43:24.175Z,13.65
2023-01-01T07:46:27.582Z,15.60
2023-01-01T07:49:31.069Z,14.18
2023-01-01T07:52:34.056Z,12.95
2023-01-01T07:55:37.525Z,11.45
2023-01-01T07:58:41.364Z,12.10
2023-01-01T08:01:44.847Z,11.90
2023-01-01T08:04:48.350Z,9.98
2023-01-01T08:07:52.099Z,11.88
2023-01-01T08:11:03.989Z,10.60
2023-01-01T08:14:07.288Z,13.95
2023-01-01T08:17:10.558Z,11.88
2023-01-01T08:20:13.703Z,12.30
2023-01-01T08:23:17.648Z,10.57
2023-01-01T08:26:29.483Z,11.70
2023-01-01T08:29:32.959Z,10.38
2023-01-01T08:32:36.118Z,10.60
2023-01-01T08:35:41.738Z,12.02
2023-01-01T08:38:45.769Z,12.95
2023-01-01T08:41:49.240Z,11.52
2023-01-01T08:44:52.828Z,10.45
2023-01-01T08:47:56.905Z,12.88
2023-01-01T08:51:01.026Z,15.77
2023-01-01T08:54:04.608Z,14.13
2023-01-01T08:57:08.351Z,14.30
2023-01-01T09:00:13.755Z,12.30
2023-01-01T09:03:16.950Z,12.02
2023-01-01T09:06:20.861Z,10.73
2023-01-01T09:09:30.886Z,12.93
2023-01-01T09:12:35.903Z,13.43
2023-01-01T09:15:39.490Z,14.02
2023-01-01T09:18:42.825Z,14.87
2023-01-01T09:21:45.908Z,13.90
2023-01-01T09:24:49.227Z,14.52
2023-01-01T09:28:04.486Z,14.57
2023-01-01T09:31:07.777Z,14.57
2023-01-01T09:34:10.775Z,13.62
2023-01-01T09:37:14.094Z,14.60
2023-01-01T09:40:32.810Z,12.65
2023-01-01T09:43:56.128Z,15.35
2023-01-01T09:47:04.731Z,13.00
2023-01-01T09:50:21.105Z,12.20
2023-01-01T09:53:27.852Z,14.43
2023-01-01T09:56:35.341Z,14.23
2023-01-01T09:59:38.324Z,13.65
2023-01-01T10:03:01.316Z,14.48
2023-01-01T10:06:24.453Z,15.65
2023-01-01T10:09:35.762Z,15.65
2023-01-01T10:12:49.382Z,15.48
2023-01-01T10:16:02.051Z,16.42
2023-01-01T10:22:39.267Z,16.20
2023-01-01T10:25:43.440Z,13.77
2023-01-01T10:28:51.682Z,15.18
2023-01-01T10:31:57.062Z,15.68
2023-01-01T10:35:01.341Z,16.92
2023-01-01T10:38:06.026Z,15.65
2023-01-01T10:41:17.140Z,15.10
2023-01-01T10:44:31.837Z,14.57
2023-01-01T10:47:34.885Z,13.07
2023-01-01T10:50:49.755Z,15.35
2023-01-01T10:53:53.719Z,16.98
2023-01-01T10:56:57.298Z,16.67
2023-01-01T11:00:28.078Z,15.55
2023-01-01T11:03:32.977Z,16.30
2023-01-01T11:06:43.414Z,15.30
2023-01-01T11:10:02.513Z,15.93
2023-01-01T11:13:20.008Z,14.75
2023-01-01T11:16:23.808Z,15.13
2023-01-01T11:19:33.181Z,16.80
2023-01-01T11:22:53.104Z,16.23
2023-01-01T11:26:31.786Z,16.23
2023-01-01T11:29:35.244Z,16.70
2023-01-01T11:32:39.188Z,16.83
2023-01-01T11:35:51.835Z,13.52
2023-01-01T11:39:27.260Z,12.43
2023-01-01T11:42:33.124Z,12.90
2023-01-01T11:45:41.425Z,13.52
2023-01-01T11:48:45.472Z,15.77
2023-01-01T11:51:48.812Z,16.87
2023-01-01T11:54:52.346Z,17.23
2023-01-01T11:58:04.592Z,16.90
2023-01-01T12:01:17.200Z,13.82
2023-01-01T12:04:24.012Z,16.33
2023-01-01T12:07:32.897Z,18.50
2023-01-01T12:10:51.533Z,15.70
2023-01-01T12:14:22.339Z,13.25
2023-01-01T12:17:35.281Z,14.98
2023-01-01T12:21:04.300Z,15.07
2023-01-01T12:24:12.593Z,12.55
2023-01-01T12:27:24.893Z,12.85
2023-01-01T12:30:56.950Z,15.80
2023-01-01T12:34:20.771Z,16.67
2023-01-01T12:37:58.008Z,15.52
2023-01-01T12:41:22.036Z,15.80
2023-01-01T12:44:38.294Z,15.23
2023-01-01T12:47:55.201Z,13.13
2023-01-01T12:51:05.619Z,13.93
2023-01-01T12:54:30.358Z,14.45
2023-01-01T12:57:44.592Z,14.93
2023-01-01T13:00:57.597Z,14.00
2023-01-01T13:04:16.426Z,14.32
2023-01-01T13:07:27.177Z,14.43
2023-01-01T13:10:37.385Z,12.37
2023-01-01T13:13:40.596Z,12.57
2023-01-01T13:16:53.787Z,11.93
2023-01-01T13:19:59.316Z,11.77
2023-01-01T13:23:02.724Z,10.73
2023-01-01T13:26:18.213Z,11.20
2023-01-01T13:29:25.783Z,11.75
2023-01-01T13:32:59.421Z,13.07
2023-01-01T13:36:10.472Z,11.60
2023-01-01T13:39:52.681Z,13.52
2023-01-01T13:43:00.738Z,12.57
2023-01-01T13:46:13.559Z,12.63
2023-01-01T13:49:35.657Z,12.32
2023-01-01T13:53:08.075Z,13.20
2023-01-01T13:56:27.356Z,16.50
2023-01-01T13:59:58.852Z,26.33
2023-01-01T14:03:07.225Z,18.02
2023-01-01T14:06:28.407Z,14.68
2023-01-01T14:09:31.334Z,17.35
2023-01-01T14:12:38.489Z,19.45
2023-01-01T14:15:57.820Z,17.73
2023-01-01T14:19:03.474Z,16.52
2023-01-01T14:22:08.099Z,24.40
2023-01-01T14:25:17.332Z,25.98
2023-01-01T14:28:31.520Z,25.00
2023-01-01T14:31:37.444Z,24.63
2023-01-01T14:34:40.306Z,23.45
2023-01-01T14:37:44.728Z,23.85
2023-01-01T14:40:47.529Z,21.08
2023-01-01T14:43:55.029Z,21.00
2023-01-01T14:46:58.112Z,21.30
2023-01-01T14:50:11.847Z,22.48
2023-01-01T14:53:19.730Z,24.58
2023-01-01T14:56:31.229Z,20.70
2023-01-01T14:59:37.009Z,24.20
2023-01-01T15:02:43.154Z,23.23
2023-01-01T15:06:00.971Z,21.87
2023-01-01T15:09:04.493Z,20.92
2023-01-01T15:12:13.017Z,23.85
2023-01-01T15:15:35.177Z,23.38
2023-01-01T15:18:43.929Z,20.88
2023-01-01T15:21:48.471Z,20.10
2023-01-01T15:24:51.782Z,19.95
2023-01-01T15:27:58.436Z,23.02
2023-01-01T15:31:01.504Z,23.83
2023-01-01T15:34:06.133Z,21.83
2023-01-01T15:37:15.111Z,21.85
2023-01-01T15:40:18.345Z,22.50
2023-01-01T15:43:24.063Z,22.33
2023-01-01T15:46:32.463Z,21.08
2023-01-01T15:49:35.952Z,24.30
2023-01-01T15:52:43.476Z,27.90
2023-01-01T15:55:52.375Z,24.42
2023-01-01T15:59:09.189Z,28.58
2023-01-01T16:02:21.006Z,25.30
2023-01-01T16:05:27.115Z,22.87
2023-01-01T16:08:30.111Z,39.35
2023-01-01T16:11:33.677Z,39.53
2023-01-01T16:14:37.153Z,39.30
2023-01-01T16:17:41.246Z,56.13
2023-01-01T16:20:45.682Z,45.05
2023-01-01T16:23:49.083Z,26.37
2023-01-01T16:26:52.229Z,18.15
2023-01-01T16:29:56.586Z,21.80
2023-01-01T16:32:59.745Z,19.12
2023-01-01T16:36:04.364Z,22.23
2023-01-01T16:39:08.577Z,25.43
2023-01-01T16:42:12.843Z,26.45
2023-01-01T16:45:21.873Z,20.05
2023-01-01T16:48:26.441Z,25.45
2023-01-01T16:51:30.966Z,39.78
2023-01-01T16:54:36.192Z,28.92
2023-01-01T17:00:43.838Z,20.42
2023-01-01T17:03:47.772Z,22.58
2023-01-01T17:06:51.314Z,27.00
2023-01-01T17:09:55.748Z,27.35
2023-01-01T17:13:02.274Z,19.52
2023-01-01T17:16:08.090Z,19.75
2023-01-01T17:19:14.897Z,22.53
2023-01-01T17:22:18.604Z,19.77
2023-01-01T17:25:22.593Z,22.42
2023-01-01T17:28:25.669Z,21.75
2023-01-01T17:31:29.558Z,21.67
2023-01-01T17:34:35.071Z,23.10
2023-01-01T17:37:38.643Z,22.77
2023-01-01T17:40:42.434Z,24.12
2023-01-01T17:43:48.295Z,26.77
2023-01-01T17:46:53.754Z,25.00
2023-01-01T17:49:58.898Z,22.70
2023-01-01T17:53:03.020Z,22.45
2023-01-01T17:56:12.590Z,21.20
2023-01-01T17:59:15.820Z,22.48
2023-01-01T18:02:20.060Z,22.80
2023-01-01T18:05:23.729Z,23.87
2023-01-01T18:08:29.296Z,24.02
2023-01-01T18:11:34.089Z,28.40
2023-01-01T18:14:37.142Z,25.27
2023-01-01T18:17:42.324Z,23.95
2023-01-01T18:20:46.042Z,26.37
2023-01-01T18:23:53.304Z,26.03
2023-01-01T18:26:56.738Z,25.23
2023-01-01T18:30:01.348Z,29.00
2023-01-01T18:33:04.751Z,30.17
2023-01-01T18:36:12.163Z,24.50
2023-01-01T18:39:23.171Z,43.47
2023-01-01T18:42:49.329Z,35.83
2023-01-01T18:45:53.009Z,29.20
2023-01-01T18:49:00.965Z,27.70
2023-01-01T18:52:23.407Z,26.02
2023-01-01T18:55:33.870Z,23.85
2023-01-01T18:58:42.985Z,21.98
2023-01-01T19:01:47.055Z,30.35
2023-01-01T19:04:51.263Z,28.80
2023-01-01T19:08:01.099Z,25.48
2023-01-01T19:11:08.509Z,26.95
2023-01-01T19:14:17.615Z,29.67
2023-01-01T19:17:23.389Z,28.17
2023-01-01T19:20:29.242Z,29.40
2023-01-01T19:23:33.023Z,28.15
2023-01-01T19:26:41.181Z,29.00
2023-01-01T19:29:46.740Z,28.05
2023-01-01T19:32:51.497Z,29.10
2023-01-01T19:35:55.299Z,33.53
2023-01-01T19:39:01.239Z,33.33
2023-01-01T19:42:07.450Z,33.35
2023-01-01T19:45:13.193Z,29.35
2023-01-01T19:48:18.868Z,28.05
2023-01-01T19:51:24.507Z,30.95
2023-01-01T19:54:27.820Z,31.60
2023-01-01T19:57:32.983Z,32.22
2023-01-01T20:00:38.794Z,32.92
2023-01-01T20:03:54.564Z,32.00
2023-01-01T20:07:01.763Z,41.05
2023-01-01T20:10:08.699Z,34.88
2023-01-01T20:13:15.349Z,34.78
2023-01-01T20:16:20.365Z,34.33
2023-01-01T20:19:25.653Z,35.42
2023-01-01T20:22:32.875Z,36.28
2023-01-01T20:25:37.497Z,36.95
2023-01-01T20:29:03.325Z,41.78
2023-01-01T20:32:17.362Z,36.05
2023-01-01T20:35:41.581Z,37.65
2023-01-01T20:38:48.647Z,39.65
2023-01-01T20:41:55.620Z,37.05
2023-01-01T20:45:00.317Z,33.28
2023-01-01T20:48:13.422Z,34.08
2023-01-01T20:51:21.669Z,35.63
2023-01-01T20:54:27.953Z,36.38
2023-01-01T20:57:34.950Z,50.53
2023-01-01T21:00:43.525Z,51.40
2023-01-01T21:03:48.184Z,59.65
2023-01-01T21:06:53.187Z,38.42
2023-01-01T21:09:59.101Z,39.15
2023-01-01T21:13:04.532Z,39.13
2023-01-01T21:19:31.671Z,37.47
2023-01-01T21:22:36.951Z,44.42
2023-01-01T21:25:51.508Z,37.25
2023-01-01T21:29:00.670Z,35.77
2023-01-01T21:32:22.893Z,32.35
2023-01-01T21:35:37.712Z,36.08
2023-01-01T21:38:41.363Z,38.33
2023-01-01T21:41:44.458Z,37.75
2023-01-01T21:44:48.068Z,37.42
2023-01-01T21:47:50.993Z,39.08
2023-01-01T21:50:54.320Z,35.30
2023-01-01T21:54:17.147Z,42.55
2023-01-01T21:57:24.816Z,41.97
2023-01-01T22:00:29.007Z,39.17
2023-01-01T22:03:33.698Z,39.65
2023-01-01T22:06:43.004Z,35.83
2023-01-01T22:09:47.747Z,36.95
2023-01-01T22:12:54.519Z,38.83
2023-01-01T22:15:57.836Z,33.05
2023-01-01T22:19:02.423Z,36.20
2023-01-01T22:22:13.227Z,38.90
2023-01-01T22:25:27.636Z,40.78
2023-01-01T22:28:41.042Z,35.97
2023-01-01T22:31:48.945Z,37.85
2023-01-01T22:35:15.538Z,42.08
2023-01-01T22:38:21.457Z,34.47
2023-01-01T22:41:24.759Z,34.83
2023-01-01T22:44:27.774Z,41.17
2023-01-01T22:47:35.201Z,41.35
2023-01-01T22:50:39.009Z,39.28
2023-01-01T22:53:42.352Z,40.80
2023-01-01T22:56:45.439Z,36.22
2023-01-01T22:59:48.845Z,36.33
2023-01-01T23:02:51.952Z,39.70
2023-01-01T23:05:56.785Z,40.60
2023-01-01T23:09:00.336Z,44.70
2023-01-01T23:12:04.446Z,35.55
2023-01-01T23:15:26.545Z,40.00
2023-01-01T23:18:35.139Z,40.22
2023-01-01T23:21:41.015Z,40.97
2023-01-01T23:24:45.283Z,39.33
2023-01-01T23:27:49.747Z,39.10
2023-01-01T23:30:53.149Z,39.85
2023-01-01T23:33:56.956Z,38.95
2023-01-01T23:37:00.290Z,41.47
2023-01-01T23:40:03.408Z,40.88
2023-01-01T23:43:06.993Z,43.15
2023-01-01T23:46:10.734Z,44.78
2023-01-01T23:49:15.588Z,40.33
2023-01-01T23:52:18.692Z,42.77
2023-01-01T23:55:23.074Z,39.40
2023-01-01T23:58:26.055Z,42.45
